Time;durP1;ratioP1;P1;durP2;ratioP2;P2;SDS_P1;SDS_P2;PMS_P1;PMS_P2;Temp;Humidity;BMP_temperature;BMP_pressure;BME280_temperature;BME280_humidity;BME280_pressure;Samples;Min_cycle;Max_cycle;Signal;HPM_P1;HPM_P2
2023/08/29 00:00:41;;;;;;;5.40;3.37;;;;;;;15.67;100.00;95536.63;6188648;23;20061;-79
2023/08/29 00:03:07;;;;;;;7.40;4.27;;;;;;;15.51;100.00;95539.69;6188547;23;20007;-79
2023/08/29 00:05:32;;;;;;;4.90;3.60;;;;;;;15.53;100.00;95532.34;6187762;23;20326;-79
2023/08/29 00:07:58;;;;;;;10.20;4.13;;;;;;;15.72;100.00;95539.44;6188577;23;20000;-79
2023/08/29 00:10:23;;;;;;;6.37;3.77;;;;;;;15.58;100.00;95529.88;6187914;23;20039;-78
2023/08/29 00:12:49;;;;;;;6.00;3.87;;;;;;;15.37;100.00;95528.28;6213704;23;20436;-79
2023/08/29 00:15:22;;;;;;;5.30;3.53;;;;;;;15.49;100.00;95525.81;6189150;23;19999;-79
2023/08/29 00:17:48;;;;;;;;;;;;;;;15.44;100.00;95528.28;6214683;23;20452;-79
2023/08/29 00:20:13;;;;;;;6.83;4.20;;;;;;;15.39;100.00;95536.03;6190360;23;19903;-79
2023/08/29 00:22:39;;;;;;;9.20;4.20;;;;;;;15.45;100.00;95541.31;6189900;23;20447;-79
2023/08/29 00:25:04;;;;;;;4.80;3.53;;;;;;;15.44;100.00;95538.88;6216404;23;19999;-80
2023/08/29 00:27:30;;;;;;;6.37;4.23;;;;;;;15.26;100.00;95542.97;6215405;23;20027;-79
2023/08/29 00:29:55;;;;;;;7.10;3.67;;;;;;;15.27;100.00;95544.59;6190210;23;20789;-79
2023/08/29 00:32:21;;;;;;;5.70;3.37;;;;;;;15.43;100.00;95542.56;6189219;23;20466;-79
2023/08/29 00:34:47;;;;;;;5.40;3.73;;;;;;;15.53;100.00;95542.94;6190030;23;20011;-79
2023/08/29 00:37:12;;;;;;;6.80;3.40;;;;;;;15.59;100.00;95539.44;6215288;23;20008;-79
2023/08/29 00:39:38;;;;;;;7.23;3.83;;;;;;;15.53;100.00;95535.00;6241997;23;20011;-79
2023/08/29 00:42:04;;;;;;;7.30;3.60;;;;;;;15.42;100.00;95535.59;6214941;23;20004;-79
2023/08/29 00:44:29;;;;;;;5.87;3.83;;;;;;;15.44;100.00;95522.97;6190150;23;20032;-79
2023/08/29 00:46:55;;;;;;;6.87;3.80;;;;;;;15.57;100.00;95512.34;6190602;23;20544;-79
2023/08/29 00:49:26;;;;;;;5.97;3.77;;;;;;;15.36;100.00;95513.44;6189824;23;20008;-79
2023/08/29 00:51:52;;;;;;;6.50;3.63;;;;;;;15.22;100.00;95514.44;6215136;23;20038;-79
2023/08/29 00:54:20;;;;;;;6.63;4.27;;;;;;;15.27;100.00;95526.06;6191606;23;20015;-79
2023/08/29 00:56:47;;;;;;;6.20;4.03;;;;;;;15.18;100.00;95523.81;6190160;23;20032;-79
2023/08/29 00:59:13;;;;;;;5.90;4.20;;;;;;;15.32;100.00;95536.88;6213715;23;20028;-79
2023/08/29 01:01:40;;;;;;;6.73;4.00;;;;;;;15.39;100.00;95538.66;6213963;23;20007;-79
2023/08/29 01:04:09;;;;;;;7.33;4.33;;;;;;;15.30;100.00;95541.53;6214624;23;20391;-79
2023/08/29 01:06:37;;;;;;;7.47;5.00;;;;;;;15.38;100.00;95543.16;6189810;23;20004;-79
2023/08/29 01:09:06;;;;;;;9.20;4.37;;;;;;;15.21;100.00;95553.38;6189266;23;20086;-79
2023/08/29 01:11:53;;;;;;;9.23;4.00;;;;;;;15.55;100.00;95556.78;6190236;23;20016;-79
2023/08/29 01:15:05;;;;;;;8.93;4.60;;;;;;;15.51;100.00;95543.13;6214342;23;20011;-79
2023/08/29 01:17:37;;;;;;;7.07;4.23;;;;;;;15.66;100.00;95553.56;6190218;23;20008;-79
2023/08/29 01:20:05;;;;;;;8.33;5.30;;;;;;;15.52;100.00;95543.94;6190136;23;20337;-79
2023/08/29 01:23:19;;;;;;;6.20;4.43;;;;;;;15.38;100.00;95545.81;6214142;23;20039;-80
2023/08/29 01:25:47;;;;;;;7.93;4.93;;;;;;;15.23;100.00;95546.03;6190108;23;20309;-79
2023/08/29 01:28:14;;;;;;;6.13;4.67;;;;;;;15.52;100.00;95552.72;6189600;23;20090;-79
2023/08/29 01:30:41;;;;;;;7.20;4.67;;;;;;;15.42;100.00;95551.50;6189393;23;20051;-79
2023/08/29 01:33:07;;;;;;;10.47;5.47;;;;;;;15.32;100.00;95542.16;6240875;23;20029;-79
2023/08/29 01:35:33;;;;;;;5.77;4.57;;;;;;;15.41;100.00;95545.41;6190059;23;20004;-79
2023/08/29 01:37:59;;;;;;;6.40;4.70;;;;;;;15.28;100.00;95546.22;6189510;23;20015;-80
2023/08/29 01:40:24;;;;;;;6.73;4.27;;;;;;;15.33;100.00;95548.28;6214728;23;20000;-79
2023/08/29 01:42:50;;;;;;;8.90;5.37;;;;;;;15.26;100.00;95540.34;6189488;23;20030;-79
2023/08/29 01:45:18;;;;;;;9.07;4.80;;;;;;;15.37;100.00;95543.38;6188423;23;19999;-79
2023/08/29 01:47:44;;;;;;;6.17;4.90;;;;;;;15.38;100.00;95545.81;6189926;23;20008;-79
2023/08/29 01:50:12;;;;;;;6.50;5.10;;;;;;;15.64;100.00;95544.94;6190031;23;20015;-79
2023/08/29 01:52:40;;;;;;;7.07;4.90;;;;;;;15.33;100.00;95537.69;6215119;23;20026;-79
2023/08/29 01:55:06;;;;;;;7.37;4.93;;;;;;;15.48;100.00;95537.44;6188750;23;20012;-79
2023/08/29 01:57:35;;;;;;;7.97;5.10;;;;;;;15.41;100.00;95536.63;6214305;23;20004;-79
2023/08/29 02:00:03;;;;;;;6.10;4.90;;;;;;;15.38;100.00;95540.50;6197482;23;20012;-78
2023/08/29 02:02:29;;;;;;;6.47;4.77;;;;;;;15.40;100.00;95527.06;6217893;23;20000;-79
2023/08/29 02:04:55;;;;;;;8.33;5.60;;;;;;;15.35;100.00;95518.91;6192593;23;20007;-79
2023/08/29 02:07:21;;;;;;;7.10;5.57;;;;;;;15.42;100.00;95519.72;6192767;23;20008;-79
2023/08/29 02:09:46;;;;;;;6.50;5.07;;;;;;;15.40;100.00;95519.94;6191579;23;20011;-79
2023/08/29 02:12:12;;;;;;;7.33;4.97;;;;;;;15.23;100.00;95519.56;6217489;23;20034;-79
2023/08/29 02:14:37;;;;;;;7.87;5.73;;;;;;;15.19;100.00;95517.50;6193222;23;20000;-78
2023/08/29 02:17:23;;;;;;;7.77;5.50;;;;;;;15.18;100.00;95516.69;6193048;23;20004;-79
2023/08/29 02:19:48;;;;;;;7.37;5.40;;;;;;;15.44;100.00;95517.69;6191823;23;20054;-79
2023/08/29 02:22:22;;;;;;;8.43;5.43;;;;;;;15.43;100.00;95513.41;6190888;23;20016;-80
2023/08/29 02:24:47;;;;;;;8.53;5.53;;;;;;;15.33;100.00;95511.19;6192807;23;20010;-79
2023/08/29 02:27:14;;;;;;;9.23;5.47;;;;;;;15.36;100.00;95509.94;6192522;23;20000;-79
2023/08/29 02:29:39;;;;;;;7.20;4.97;;;;;;;15.33;100.00;95506.69;6193073;23;20380;-79
2023/08/29 02:32:07;;;;;;;8.30;5.87;;;;;;;15.46;100.00;95505.88;6217805;23;20314;-79
2023/08/29 02:34:33;;;;;;;8.30;6.13;;;;;;;15.53;100.00;95503.19;6191944;23;20011;-79
2023/08/29 02:36:58;;;;;;;6.70;5.27;;;;;;;15.32;100.00;95509.53;6187058;23;20344;-81
2023/08/29 02:39:24;;;;;;;6.90;5.37;;;;;;;15.21;100.00;95508.34;6190902;23;20350;-79
2023/08/29 02:41:49;;;;;;;7.97;5.50;;;;;;;15.44;100.00;95501.78;6191605;23;20014;-79
2023/08/29 02:44:15;;;;;;;8.27;5.70;;;;;;;15.56;100.00;95500.94;6217782;23;20006;-79
2023/08/29 02:46:40;;;;;;;8.93;5.87;;;;;;;15.43;100.00;95497.50;6192422;23;20004;-79
2023/08/29 02:49:06;;;;;;;12.27;6.73;;;;;;;15.18;100.00;95502.63;6192428;23;20008;-79
2023/08/29 02:51:32;;;;;;;7.90;6.63;;;;;;;15.29;100.00;95502.00;6191666;23;20007;-79
2023/08/29 02:53:58;;;;;;;6.77;5.10;;;;;;;15.35;100.00;95505.66;6191981;23;19996;-80
2023/08/29 02:56:23;;;;;;;7.97;6.00;;;;;;;15.26;100.00;95511.19;6192684;23;20004;-80
2023/08/29 02:58:50;;;;;;;9.50;5.63;;;;;;;15.26;100.00;95505.09;6192542;23;20011;-79
2023/08/29 03:01:16;;;;;;;8.10;5.80;;;;;;;15.23;100.00;95500.19;6192830;23;20113;-79
2023/08/29 03:03:41;;;;;;;7.87;6.00;;;;;;;15.24;100.00;95497.34;6189739;23;20507;-80
2023/08/29 03:06:07;;;;;;;10.07;6.17;;;;;;;15.30;100.00;95490.41;6189903;23;20436;-79
2023/08/29 03:08:32;;;;;;;7.80;6.10;;;;;;;15.32;100.00;95498.94;6189567;23;20051;-79
2023/08/29 03:11:03;;;;;;;9.80;6.23;;;;;;;15.05;100.00;95493.69;6213044;23;20004;-79
2023/08/29 03:13:30;;;;;;;9.40;5.63;;;;;;;14.93;100.00;95489.22;6215333;23;20403;-79
2023/08/29 03:15:59;;;;;;;7.97;6.70;;;;;;;15.22;100.00;95493.25;6214268;23;20015;-79
2023/08/29 03:18:28;;;;;;;9.30;6.50;;;;;;;15.08;100.00;95495.09;6189538;23;20436;-79
2023/08/29 03:20:56;;;;;;;9.07;6.40;;;;;;;15.08;100.00;95487.16;6187803;23;20004;-79
2023/08/29 03:23:21;;;;;;;8.80;6.97;;;;;;;14.75;100.00;95487.97;6189831;23;20023;-79
2023/08/29 03:25:48;;;;;;;7.63;6.53;;;;;;;14.92;100.00;95479.63;6212917;23;20503;-79
2023/08/29 03:28:13;;;;;;;8.20;6.20;;;;;;;15.05;100.00;95475.13;6240584;23;20012;-78
2023/08/29 03:30:39;;;;;;;7.67;6.27;;;;;;;14.80;100.00;95476.81;6212336;23;20008;-79
2023/08/29 03:33:04;;;;;;;8.60;6.83;;;;;;;14.95;100.00;95481.88;6187979;23;20429;-79
2023/08/29 03:35:30;;;;;;;8.83;6.50;;;;;;;14.84;100.00;95476.19;6188583;23;20489;-79
2023/08/29 03:37:55;;;;;;;10.07;6.50;;;;;;;14.96;100.00;95480.88;6214762;23;20015;-79
2023/08/29 03:40:21;;;;;;;10.13;6.30;;;;;;;14.78;100.00;95469.06;6189781;23;20008;-79
2023/08/29 03:42:47;;;;;;;10.43;6.80;;;;;;;14.99;100.00;95472.50;6242099;23;20332;-79
2023/08/29 03:45:14;;;;;;;8.80;6.20;;;;;;;14.80;100.00;95469.69;6188272;23;20452;-79
2023/08/29 03:47:42;;;;;;;12.57;6.77;;;;;;;14.95;100.00;95477.38;6189605;23;20004;-79
2023/08/29 03:50:08;;;;;;;10.07;6.93;;;;;;;14.95;100.00;95479.22;6188781;23;20050;-79
2023/08/29 03:52:33;;;;;;;10.80;7.10;;;;;;;14.78;100.00;95474.34;6188429;23;20061;-79
2023/08/29 03:54:59;;;;;;;9.53;6.40;;;;;;;14.90;100.00;95479.84;6190897;23;20007;-79
2023/08/29 03:57:26;;;;;;;7.17;5.93;;;;;;;14.95;100.00;95479.22;6215963;23;20007;-79
2023/08/29 03:59:53;;;;;;;9.27;7.27;;;;;;;15.05;100.00;95488.38;6192071;23;20102;-79
2023/08/29 04:02:18;;;;;;;11.03;7.43;;;;;;;15.15;100.00;95480.03;6215630;23;20010;-79
2023/08/29 04:04:44;;;;;;;10.67;7.10;;;;;;;14.93;100.00;95484.75;6190841;23;20004;-79
2023/08/29 04:07:10;;;;;;;10.67;7.60;;;;;;;15.06;100.00;95482.09;6191353;23;20459;-79
2023/08/29 04:09:38;;;;;;;9.57;7.30;;;;;;;15.10;100.00;95474.53;6215655;23;20008;-79
2023/08/29 04:12:07;;;;;;;8.83;6.87;;;;;;;15.01;100.00;95479.22;6190994;23;20016;-79
2023/08/29 04:14:34;;;;;;;9.37;7.00;;;;;;;14.83;100.00;95479.03;6216094;23;20413;-79
2023/08/29 04:17:00;;;;;;;9.13;7.60;;;;;;;14.83;100.00;95474.56;6190873;23;20012;-79
2023/08/29 04:19:26;;;;;;;8.47;6.40;;;;;;;14.84;100.00;95476.19;6190981;23;20023;-79
2023/08/29 04:21:51;;;;;;;9.80;6.93;;;;;;;14.97;100.00;95469.25;6213914;23;20290;-79
2023/08/29 04:24:17;;;;;;;9.23;6.87;;;;;;;14.81;100.00;95478.41;6190751;23;20062;-79
2023/08/29 04:26:42;;;;;;;10.03;7.67;;;;;;;14.82;100.00;95480.03;6191295;23;20004;-79
2023/08/29 04:29:08;;;;;;;9.30;7.33;;;;;;;14.93;100.00;95484.75;6191387;23;20517;-79
2023/08/29 04:31:33;;;;;;;8.67;7.10;;;;;;;14.84;100.00;95478.81;6215435;23;20004;-79
2023/08/29 04:34:00;;;;;;;10.97;7.77;;;;;;;14.73;100.00;95484.75;6216030;23;20522;-79
2023/08/29 04:36:25;;;;;;;9.20;7.47;;;;;;;14.82;100.00;95480.88;6215554;23;20050;-79
2023/08/29 04:38:51;;;;;;;9.23;7.73;;;;;;;14.85;100.00;95488.41;6191298;23;20012;-79
2023/08/29 04:41:17;;;;;;;8.57;7.30;;;;;;;14.94;100.00;95481.06;6215736;23;20008;-79
2023/08/29 04:43:42;;;;;;;11.70;8.57;;;;;;;15.02;100.00;95486.16;6190844;23;20070;-79
2023/08/29 04:46:08;;;;;;;14.00;7.77;;;;;;;14.94;100.00;95486.38;6191038;23;20007;-79
2023/08/29 04:48:36;;;;;;;11.97;7.83;;;;;;;15.17;100.00;95483.28;6216003;23;20059;-79
2023/08/29 04:51:06;;;;;;;9.03;7.87;;;;;;;15.13;100.00;95482.06;6215146;23;20039;-79
2023/08/29 04:53:32;;;;;;;9.50;8.07;;;;;;;14.92;100.00;95477.00;6190351;23;20598;-79
2023/08/29 04:56:03;;;;;;;10.10;8.03;;;;;;;15.07;100.00;95482.91;6190767;23;20004;-79
2023/08/29 04:58:33;;;;;;;9.83;7.97;;;;;;;14.75;100.00;95477.41;6191524;23;19996;-79
2023/08/29 05:01:00;;;;;;;9.93;8.37;;;;;;;14.82;100.00;95470.28;6190669;23;20003;-78
2023/08/29 05:03:26;;;;;;;9.97;8.33;;;;;;;14.98;100.00;95470.88;6216159;23;20069;-79
2023/08/29 05:05:52;;;;;;;9.97;8.27;;;;;;;14.71;100.00;95470.88;6214557;23;20004;-79
2023/08/29 05:08:18;;;;;;;14.23;8.37;;;;;;;14.87;100.00;95474.16;6190312;23;20012;-78
2023/08/29 05:10:44;;;;;;;9.67;8.37;;;;;;;14.87;100.00;95476.81;6215277;23;20483;-79
2023/08/29 05:13:10;;;;;;;10.90;9.00;;;;;;;14.85;100.00;95469.88;6216058;23;20042;-79
2023/08/29 05:15:38;;;;;;;9.67;8.53;;;;;;;14.76;100.00;95476.41;6216176;23;20673;-79
2023/08/29 05:18:04;;;;;;;10.63;8.90;;;;;;;14.80;100.00;95479.44;6214263;23;20020;-79
2023/08/29 05:20:31;;;;;;;10.00;8.43;;;;;;;14.71;100.00;95478.00;6186118;23;20012;-79
2023/08/29 05:22:57;;;;;;;12.00;8.43;;;;;;;14.91;100.00;95480.66;6214869;23;20008;-78
2023/08/29 05:25:23;;;;;;;12.97;8.93;;;;;;;14.72;100.00;95477.00;6215511;23;20450;-78
2023/08/29 05:27:48;;;;;;;12.13;9.33;;;;;;;14.83;100.00;95479.03;6215481;23;20119;-79
2023/08/29 05:30:14;;;;;;;12.53;9.67;;;;;;;14.85;100.00;95475.19;6215733;23;20074;-78
2023/08/29 05:32:39;;;;;;;11.20;9.20;;;;;;;14.80;100.00;95474.16;6215003;23;20012;-78
2023/08/29 05:35:06;;;;;;;11.13;9.50;;;;;;;15.01;100.00;95481.06;6190062;23;20012;-78
2023/08/29 05:37:32;;;;;;;11.90;10.13;;;;;;;15.00;100.00;95480.25;6187924;23;20011;-78
2023/08/29 05:39:58;;;;;;;11.07;9.37;;;;;;;15.12;100.00;95477.78;6215181;23;20011;-78
2023/08/29 05:42:32;;;;;;;12.10;10.20;;;;;;;15.10;100.00;95479.84;6189309;23;20010;-78
2023/08/29 05:44:57;;;;;;;12.50;9.63;;;;;;;15.23;100.00;95485.13;6215226;23;20012;-78
2023/08/29 05:47:23;;;;;;;10.60;8.60;;;;;;;15.12;100.00;95483.06;6190153;23;20004;-77
2023/08/29 05:49:52;;;;;;;11.63;9.43;;;;;;;15.08;100.00;95484.50;6188576;23;20039;-78
2023/08/29 05:52:18;;;;;;;10.73;8.47;;;;;;;15.13;100.00;95481.28;6188639;23;20069;-78
2023/08/29 05:54:43;;;;;;;10.33;9.23;;;;;;;15.17;100.00;95490.44;6190012;23;20007;-78
2023/08/29 05:57:09;;;;;;;10.53;9.00;;;;;;;15.31;100.00;95487.53;6215692;23;20004;-78
2023/08/29 05:59:34;;;;;;;10.73;9.23;;;;;;;15.20;100.00;95493.47;6214101;23;20417;-79
2023/08/29 06:02:00;;;;;;;14.10;9.03;;;;;;;15.16;100.00;95484.31;6191347;23;20007;-78
2023/08/29 06:04:25;;;;;;;9.40;8.10;;;;;;;15.15;100.00;95495.91;6213798;23;20000;-78
2023/08/29 06:06:51;;;;;;;11.23;9.03;;;;;;;15.31;100.00;95495.47;6189556;23;20016;-78
2023/08/29 06:09:18;;;;;;;13.57;8.77;;;;;;;15.46;100.00;95491.78;6214172;23;20016;-78
2023/08/29 06:11:43;;;;;;;10.13;8.13;;;;;;;15.40;100.00;95492.63;6188948;23;20000;-79
2023/08/29 06:14:13;;;;;;;10.87;8.57;;;;;;;15.50;100.00;95495.66;6214085;23;20000;-78
2023/08/29 06:16:38;;;;;;;11.53;8.10;;;;;;;15.31;100.00;95499.97;6189898;23;20091;-78
2023/08/29 06:19:05;;;;;;;12.87;8.70;;;;;;;15.44;100.00;95496.47;6189431;23;20008;-78
2023/08/29 06:21:31;;;;;;;12.73;8.90;;;;;;;15.54;100.00;95496.88;6240111;23;20090;-78
2023/08/29 06:23:56;;;;;;;10.77;9.10;;;;;;;15.49;100.00;95499.31;6189575;23;20426;-78
2023/08/29 06:26:27;;;;;;;9.33;8.33;;;;;;;15.36;100.00;95510.78;6190696;23;20000;-78
2023/08/29 06:28:56;;;;;;;10.43;9.10;;;;;;;15.67;100.00;95512.75;6189782;23;20012;-78
2023/08/29 06:31:22;;;;;;;10.60;9.23;;;;;;;15.46;100.00;95519.13;6189776;23;20011;-78
2023/08/29 06:33:54;;;;;;;10.30;9.20;;;;;;;15.53;100.00;95511.16;6213845;23;20023;-78
2023/08/29 06:36:19;;;;;;;11.07;9.77;;;;;;;15.18;100.00;95518.53;6215657;23;20012;-78
2023/08/29 06:38:45;;;;;;;11.83;9.47;;;;;;;15.38;100.00;95523.81;6190732;23;20034;-77
2023/08/29 06:41:17;;;;;;;12.27;10.87;;;;;;;15.67;100.00;95518.06;6214819;23;20375;-78
2023/08/29 06:43:42;;;;;;;12.33;9.60;;;;;;;15.46;100.00;95527.06;6189360;23;20000;-77
2023/08/29 06:46:08;;;;;;;11.73;9.10;;;;;;;15.64;100.00;95531.69;6189231;23;20345;-77
2023/08/29 06:48:33;;;;;;;9.70;8.57;;;;;;;15.45;100.00;95529.91;6189440;23;20436;-77
2023/08/29 06:50:59;;;;;;;10.30;8.57;;;;;;;15.46;100.00;95531.53;6214400;23;20004;-77
2023/08/29 06:53:26;;;;;;;11.13;9.57;;;;;;;15.42;100.00;95530.31;6241874;23;20717;-77
2023/08/29 06:55:55;;;;;;;10.50;8.97;;;;;;;15.51;100.00;95531.72;6215227;23;20012;-77
2023/08/29 06:58:20;;;;;;;10.50;9.03;;;;;;;15.55;100.00;95531.09;6189378;23;20000;-78
2023/08/29 07:00:46;;;;;;;9.77;8.77;;;;;;;15.47;100.00;95536.63;6189914;23;19996;-77
2023/08/29 07:03:12;;;;;;;13.03;9.60;;;;;;;15.35;100.00;95545.41;6189493;23;20007;-77
2023/08/29 07:05:39;;;;;;;10.97;8.90;;;;;;;15.50;100.00;95541.53;6189136;23;19999;-77
2023/08/29 07:08:05;;;;;;;10.00;8.93;;;;;;;15.45;100.00;95546.59;6214689;23;20007;-77
2023/08/29 07:10:34;;;;;;;14.50;10.73;;;;;;;15.59;100.00;95541.28;6213350;23;20008;-77
2023/08/29 07:12:59;;;;;;;13.70;10.07;;;;;;;15.24;100.00;95545.00;6215069;23;20007;-77
2023/08/29 07:15:26;;;;;;;12.27;9.93;;;;;;;15.32;100.00;95557.22;6187845;23;20008;-77
2023/08/29 07:17:53;;;;;;;10.97;9.57;;;;;;;15.42;100.00;95551.50;6215001;23;20491;-77
2023/08/29 07:20:24;;;;;;;11.60;9.93;;;;;;;15.45;100.00;95561.69;6188437;23;20008;-77
2023/08/29 07:22:50;;;;;;;11.03;9.67;;;;;;;15.45;100.00;95561.69;6188433;23;20011;-77
2023/08/29 07:25:18;;;;;;;11.47;10.23;;;;;;;15.60;100.00;95562.28;6214204;23;20007;-77
2023/08/29 07:27:44;;;;;;;13.70;9.60;;;;;;;15.66;100.00;95563.28;6189654;23;20433;-77
2023/08/29 07:30:14;;;;;;;11.10;9.97;;;;;;;15.88;100.00;95567.34;6189274;23;20012;-77
2023/08/29 07:32:42;;;;;;;12.33;10.10;;;;;;;16.06;100.00;95566.66;6214009;23;20395;-77
2023/08/29 07:35:09;;;;;;;11.50;10.23;;;;;;;15.85;100.00;95566.94;6189448;23;20023;-78
2023/08/29 07:37:35;;;;;;;10.50;9.33;;;;;;;15.67;100.00;95581.69;6213448;23;20057;-77
2023/08/29 07:40:00;;;;;;;11.73;9.60;;;;;;;15.99;100.00;95572.00;6213865;23;20016;-77
2023/08/29 07:42:26;;;;;;;10.17;9.13;;;;;;;15.71;100.00;95577.59;6188701;23;20011;-77
2023/08/29 07:44:51;;;;;;;11.50;9.65;;;;;;;15.78;100.00;95578.38;6214395;23;20019;-77
2023/08/29 07:47:17;;;;;;;13.40;10.60;;;;;;;15.92;100.00;95578.34;6189630;23;20008;-77
2023/08/29 07:49:46;;;;;;;10.98;9.25;;;;;;;16.16;100.00;95574.19;6213718;23;20000;-77
2023/08/29 07:52:11;;;;;;;11.60;9.73;;;;;;;15.97;100.00;95576.72;6214002;23;20004;-77
2023/08/29 07:54:38;;;;;;;10.17;9.17;;;;;;;15.87;100.00;95580.81;6211558;23;20046;-78
2023/08/29 07:57:03;;;;;;;11.10;9.82;;;;;;;16.10;100.00;95575.84;6241027;23;20004;-77
2023/08/29 07:59:29;;;;;;;10.52;9.40;;;;;;;16.15;100.00;95585.81;6189098;23;20015;-78
2023/08/29 08:01:55;;;;;;;10.63;9.52;;;;;;;16.10;100.00;95580.34;6188541;23;20033;-77
2023/08/29 08:04:20;;;;;;;10.32;9.20;;;;;;;16.42;100.00;95586.53;6212675;23;20018;-77
2023/08/29 08:06:46;;;;;;;10.90;9.33;;;;;;;16.25;100.00;95584.34;6189006;23;20015;-77
2023/08/29 08:09:16;;;;;;;11.18;9.90;;;;;;;16.39;100.00;95579.00;6187947;23;20004;-77
2023/08/29 08:11:41;;;;;;;9.30;8.15;;;;;;;16.44;100.00;95581.84;6189376;23;20466;-77
2023/08/29 08:14:07;;;;;;;10.65;8.40;;;;;;;16.42;100.00;95589.19;6213933;23;20000;-77
2023/08/29 08:16:32;;;;;;;10.05;8.82;;;;;;;16.53;100.00;95591.16;6188941;23;20022;-77
2023/08/29 08:18:58;;;;;;;10.20;8.40;;;;;;;16.23;100.00;95590.88;6214435;23;20770;-77
2023/08/29 08:21:24;;;;;;;10.05;8.18;;;;;;;16.44;100.00;95592.47;6213267;23;20463;-77
2023/08/29 08:23:49;;;;;;;9.07;7.95;;;;;;;16.48;100.00;95591.81;6188045;23;20019;-78
2023/08/29 08:26:17;;;;;;;9.38;8.38;;;;;;;16.44;100.00;95582.66;6189451;23;20025;-78
2023/08/29 08:28:43;;;;;;;11.02;8.80;;;;;;;16.50;100.00;95581.81;6189008;23;20008;-78
2023/08/29 08:31:09;;;;;;;9.13;8.23;;;;;;;16.50;100.00;95583.66;6188241;23;20000;-77
2023/08/29 08:33:40;;;;;;;9.27;8.15;;;;;;;16.71;100.00;95585.97;6239278;23;20070;-77
2023/08/29 08:36:06;;;;;;;9.18;8.18;;;;;;;16.84;100.00;95586.97;6189211;23;20087;-77
2023/08/29 08:38:31;;;;;;;8.43;6.90;;;;;;;16.68;100.00;95583.75;6189360;23;20348;-77
2023/08/29 08:40:58;;;;;;;8.50;6.72;;;;;;;16.85;100.00;95586.72;6190314;23;20000;-77
2023/08/29 08:43:25;;;;;;;7.20;5.95;;;;;;;16.48;100.00;95578.53;6190322;23;20005;-77
2023/08/29 08:45:51;;;;;;;9.15;6.57;;;;;;;16.64;100.00;95587.84;6190426;23;20433;-77
2023/08/29 08:48:19;;;;;;;8.10;6.78;;;;;;;16.89;100.00;95587.13;6215907;23;20020;-77
2023/08/29 08:50:47;;;;;;;8.07;6.82;;;;;;;16.86;100.00;95580.38;6189996;23;20000;-77
2023/08/29 08:53:15;;;;;;;8.88;7.78;;;;;;;17.23;100.00;95582.38;6215963;23;20019;-77
2023/08/29 08:55:40;;;;;;;7.88;6.53;;;;;;;16.77;100.00;95586.16;6190739;23;20004;-78
2023/08/29 08:58:06;;;;;;;8.15;7.05;;;;;;;16.85;100.00;95589.38;6190505;23;20054;-77
2023/08/29 09:00:32;;;;;;;8.32;7.47;;;;;;;17.01;100.00;95598.69;6190110;23;20040;-77
2023/08/29 09:03:01;;;;;;;8.98;7.88;;;;;;;17.33;100.00;95590.69;6190825;23;20379;-77
2023/08/29 09:05:37;;;;;;;9.25;7.68;;;;;;;17.22;100.00;95594.84;6241920;23;20010;-77
2023/08/29 09:08:06;;;;;;;10.30;7.22;;;;;;;17.07;100.00;95592.53;6213802;23;20066;-77
2023/08/29 09:10:39;;;;;;;8.45;7.38;;;;;;;17.02;100.00;95589.69;6214123;23;20004;-77
2023/08/29 09:13:04;;;;;;;;;;;;;;;17.04;100.00;95584.97;6215299;23;20027;-77
2023/08/29 09:15:32;;;;;;;8.05;6.72;;;;;;;17.18;100.00;95588.34;6190798;23;19903;-77
2023/08/29 09:17:57;;;;;;;7.82;6.00;;;;;;;17.32;100.00;95589.88;6190339;23;20050;-78
2023/08/29 09:20:28;;;;;;;7.43;5.80;;;;;;;17.12;100.00;95583.91;6213618;23;20004;-78
2023/08/29 09:22:53;;;;;;;8.05;6.57;;;;;;;17.36;100.00;95580.41;6214400;23;20070;-77
2023/08/29 09:25:19;;;;;;;7.38;6.15;;;;;;;17.30;100.00;95594.56;6187459;23;20552;-77
2023/08/29 09:27:49;;;;;;;8.20;6.43;;;;;;;17.90;100.00;95591.41;6242409;23;20015;-77
2023/08/29 09:30:17;;;;;;;7.25;5.95;;;;;;;18.00;100.00;95594.38;6190217;23;20318;-77
2023/08/29 09:32:44;;;;;;;8.80;6.00;;;;;;;18.47;100.00;95596.50;6215225;23;20014;-77
2023/08/29 09:35:15;;;;;;;10.30;6.22;;;;;;;18.28;100.00;95596.53;6190211;23;20004;-77
2023/08/29 09:37:47;;;;;;;6.97;5.68;;;;;;;18.29;100.00;95594.66;6189685;23;20091;-77
2023/08/29 09:40:18;;;;;;;7.82;5.47;;;;;;;18.47;100.00;95604.47;6190190;23;20012;-78
2023/08/29 09:42:59;;;;;;;8.02;5.40;;;;;;;18.34;100.00;95602.78;6189930;23;20015;-78
2023/08/29 09:45:28;;;;;;;6.45;4.80;;;;;;;18.50;100.00;95604.84;6214673;23;20350;-78
2023/08/29 09:48:07;;;;;;;6.13;4.65;;;;;;;17.83;100.00;95601.31;6189358;23;20073;-79
2023/08/29 09:50:37;;;;;;;6.30;4.90;;;;;;;18.12;100.00;95597.91;6189180;23;20014;-78
2023/08/29 09:53:03;;;;;;;6.18;4.18;;;;;;;18.27;100.00;95594.88;6214707;23;20026;-78
2023/08/29 09:55:35;;;;;;;7.63;4.63;;;;;;;18.37;100.00;95605.00;6189572;23;20004;-79
2023/08/29 09:58:04;;;;;;;6.53;4.78;;;;;;;18.09;100.00;95600.22;6214910;23;20074;-77
2023/08/29 10:00:31;;;;;;;6.78;4.70;;;;;;;18.08;100.00;95599.41;6189529;23;20007;-77
2023/08/29 10:03:03;;;;;;;6.55;5.03;;;;;;;18.43;100.00;95604.09;6190328;23;20030;-77
2023/08/29 10:05:33;;;;;;;6.93;5.40;;;;;;;18.50;100.00;95598.69;6214130;23;20008;-78
2023/08/29 10:08:08;;;;;;;6.70;5.13;;;;;;;18.31;100.00;95604.06;6214298;23;20008;-78
2023/08/29 10:10:34;;;;;;;5.95;4.78;;;;;;;18.38;100.00;95606.66;6189022;23;20086;-77
2023/08/29 10:13:02;;;;;;;6.75;5.18;;;;;;;18.40;100.00;95611.72;6190581;23;20082;-79
2023/08/29 10:15:29;;;;;;;5.93;4.40;;;;;;;18.46;100.00;95611.66;6189351;23;20050;-79
2023/08/29 10:17:55;;;;;;;5.85;4.18;;;;;;;18.27;100.00;95602.06;6190105;23;20018;-79
2023/08/29 10:20:26;;;;;;;5.70;4.10;;;;;;;18.19;100.00;95607.69;6188543;23;20074;-79
2023/08/29 10:22:54;;;;;;;5.82;4.60;;;;;;;18.08;100.00;95601.25;6189389;23;20204;-79
2023/08/29 10:25:24;;;;;;;5.78;3.75;;;;;;;18.29;100.00;95600.00;6213067;23;20019;-78
2023/08/29 10:27:50;;;;;;;5.70;4.35;;;;;;;18.59;100.00;95606.16;6213451;23;20013;-78
2023/08/29 10:30:16;;;;;;;10.73;6.10;;;;;;;18.54;100.00;95597.22;6212026;23;20007;-78
2023/08/29 10:32:44;;;;;;;22.23;12.38;;;;;;;18.70;100.00;95607.25;6239489;23;20012;-79
2023/08/29 10:35:22;;;;;;;14.68;9.25;;;;;;;18.66;100.00;95607.94;6212049;23;20000;-79
2023/08/29 10:37:52;;;;;;;6.70;4.00;;;;;;;18.78;100.00;95608.84;6211176;23;20538;-78
2023/08/29 10:40:21;;;;;;;8.38;4.00;;;;;;;18.89;100.00;95605.38;6213859;23;21091;-78
2023/08/29 10:42:54;;;;;;;5.65;4.25;;;;;;;19.17;100.00;95609.28;6188257;23;20003;-77
2023/08/29 10:45:39;;;;;;;;;;;;;;;19.12;100.00;95607.31;6189882;23;20008;-77
2023/08/29 10:48:05;;;;;;;8.32;4.78;;;;;;;19.01;100.00;95608.06;6189009;23;20363;-80
2023/08/29 10:50:30;;;;;;;10.57;7.05;;;;;;;18.58;100.00;95617.88;6212474;23;20000;-79
2023/08/29 10:53:17;;;;;;;5.72;3.90;;;;;;;18.77;100.00;95607.19;6214486;23;20087;-78
2023/08/29 10:56:00;;;;;;;13.07;6.35;;;;;;;18.60;100.00;95602.44;6188683;23;20008;-78
2023/08/29 10:58:43;;;;;;;7.28;4.10;;;;;;;18.70;100.00;95601.13;6214200;23;20007;-78
2023/08/29 11:01:41;;;;;;;4.82;3.42;;;;;;;18.85;100.00;95601.56;6189351;23;20000;-78
2023/08/29 11:04:15;;;;;;;7.43;3.45;;;;;;;18.73;100.00;95603.34;6214548;23;20551;-78
2023/08/29 11:06:53;;;;;;;5.10;3.15;;;;;;;18.99;100.00;95600.31;6214523;23;20008;-78
2023/08/29 11:09:24;;;;;;;5.70;3.72;;;;;;;19.07;100.00;95597.31;6188471;23;20452;-77
2023/08/29 11:12:15;;;;;;;5.78;3.70;;;;;;;18.95;100.00;95598.34;6188458;23;20670;-78
2023/08/29 11:14:56;;;;;;;5.20;3.75;;;;;;;19.03;100.00;95601.50;6189534;23;20011;-77
2023/08/29 11:17:23;;;;;;;7.38;4.43;;;;;;;18.87;100.00;95594.13;6214030;23;20078;-77
2023/08/29 11:19:56;;;;;;;4.35;3.15;;;;;;;19.05;100.00;95604.75;6188489;23;20110;-78
2023/08/29 11:22:26;;;;;;;;;;;;;;;19.07;100.00;95599.19;6188857;23;20094;-78
2023/08/29 11:24:55;;;;;;;4.75;3.42;;;;;;;19.36;100.00;95600.19;6213743;23;19986;-77